createdAt,value
2022-10-13T00:00:21.548Z,90.34
2022-10-13T00:02:47.905Z,90.29
2022-10-13T00:05:20.708Z,90.29
2022-10-13T00:07:47.076Z,90.09
2022-10-13T00:10:14.510Z,90.32
2022-10-13T00:12:40.849Z,90.28
2022-10-13T00:15:32.271Z,90.21
2022-10-13T00:17:58.664Z,90.14
2022-10-13T00:20:26.200Z,90.29
2022-10-13T00:23:02.606Z,90.44
2022-10-13T00:25:47.638Z,90.46
2022-10-13T00:28:18.993Z,90.67
2022-10-13T00:30:58.813Z,90.39
2022-10-13T00:33:25.727Z,90.16
2022-10-13T00:35:52.255Z,90.20
2022-10-13T00:38:36.016Z,89.90
2022-10-13T00:41:02.973Z,90.09
2022-10-13T00:43:55.338Z,90.61
2022-10-13T00:46:37.034Z,90.61
2022-10-13T00:49:15.709Z,90.42
2022-10-13T00:51:46.836Z,89.93
2022-10-13T00:54:17.483Z,90.20
2022-10-13T00:57:00.280Z,89.92
2022-10-13T00:59:29.366Z,90.41
2022-10-13T01:01:58.770Z,90.60
2022-10-13T01:04:52.777Z,90.69
2022-10-13T01:07:19.293Z,90.10
2022-10-13T01:09:47.307Z,90.93
2022-10-13T01:13:00.585Z,90.72
2022-10-13T01:16:04.663Z,90.61
2022-10-13T01:18:46.455Z,90.77
2022-10-13T01:21:33.154Z,90.93
2022-10-13T01:24:19.412Z,90.73
2022-10-13T01:27:14.981Z,91.20
2022-10-13T01:30:25.028Z,90.80
2022-10-13T01:33:19.884Z,90.71
2022-10-13T01:36:06.779Z,91.11
2022-10-13T01:38:54.494Z,90.65
2022-10-13T01:41:51.501Z,91.09
2022-10-13T01:44:25.516Z,90.78
2022-10-13T01:46:53.856Z,90.72
2022-10-13T01:49:27.017Z,91.15
2022-10-13T01:52:17.939Z,90.61
2022-10-13T01:55:05.864Z,91.23
2022-10-13T01:57:44.179Z,91.17
2022-10-13T02:00:25.891Z,91.34
2022-10-13T02:03:11.984Z,90.83
2022-10-13T02:06:01.252Z,90.95
2022-10-13T02:08:39.781Z,90.92
2022-10-13T02:11:20.524Z,90.89
2022-10-13T02:14:11.896Z,90.88
2022-10-13T02:16:44.428Z,90.91
2022-10-13T02:19:15.816Z,90.85
2022-10-13T02:22:09.585Z,90.93
2022-10-13T02:24:36.037Z,91.23
2022-10-13T02:27:05.332Z,91.25
2022-10-13T02:29:50.465Z,91.18
2022-10-13T02:32:22.300Z,91.37
2022-10-13T02:34:49.244Z,91.10
2022-10-13T02:37:19.922Z,91.26
2022-10-13T02:39:46.305Z,91.43
2022-10-13T02:42:12.713Z,90.82
2022-10-13T02:44:45.315Z,90.91
2022-10-13T02:47:13.277Z,91.39
2022-10-13T02:49:39.633Z,91.55
2022-10-13T02:52:06.177Z,91.19
2022-10-13T02:54:32.562Z,91.48
2022-10-13T02:57:00.045Z,91.55
2022-10-13T02:59:26.418Z,91.07
2022-10-13T03:01:56.793Z,91.00
2022-10-13T03:04:23.236Z,91.23
2022-10-13T03:06:49.607Z,91.34
2022-10-13T03:09:19.072Z,91.62
2022-10-13T03:11:45.520Z,91.96
2022-10-13T03:14:11.941Z,91.50
2022-10-13T03:16:40.437Z,91.93
2022-10-13T03:19:06.819Z,91.88
2022-10-13T03:21:33.182Z,91.35
2022-10-13T03:23:59.551Z,91.82
2022-10-13T03:26:27.341Z,91.89
2022-10-13T03:28:53.765Z,91.85
2022-10-13T03:31:27.365Z,91.71
2022-10-13T03:33:53.736Z,91.54
2022-10-13T03:36:47.194Z,91.81
2022-10-13T03:39:13.795Z,91.59
2022-10-13T03:41:46.136Z,91.75
2022-10-13T03:44:18.804Z,92.08
2022-10-13T03:46:45.184Z,92.15
2022-10-13T03:49:21.928Z,91.74
2022-10-13T03:52:43.963Z,91.96
2022-10-13T03:55:10.426Z,92.04
2022-10-13T03:57:36.843Z,92.35
2022-10-13T04:00:03.957Z,92.14
2022-10-13T04:02:33.724Z,92.06
2022-10-13T04:05:01.198Z,92.16
2022-10-13T04:07:27.578Z,92.33
2022-10-13T04:09:54.136Z,92.25
2022-10-13T04:12:21.277Z,92.16
2022-10-13T04:14:49.842Z,92.10
2022-10-13T04:17:20.248Z,92.40
2022-10-13T04:19:46.627Z,92.31
2022-10-13T04:22:13.135Z,92.32
2022-10-13T04:24:39.642Z,92.49
2022-10-13T04:27:06.074Z,92.14
2022-10-13T04:29:32.747Z,92.51
2022-10-13T04:32:00.048Z,92.60
2022-10-13T04:34:26.505Z,92.56
2022-10-13T04:36:52.915Z,92.48
2022-10-13T04:39:19.469Z,92.37
2022-10-13T04:41:58.156Z,92.36
2022-10-13T04:44:24.606Z,92.51
2022-10-13T04:47:01.477Z,92.69
2022-10-13T04:49:28.000Z,92.98
2022-10-13T04:51:59.483Z,92.51
2022-10-13T04:54:39.148Z,93.00
2022-10-13T04:57:05.601Z,92.57
2022-10-13T04:59:38.420Z,92.66
2022-10-13T05:02:04.902Z,92.72
2022-10-13T05:04:31.361Z,92.33
2022-10-13T05:07:18.036Z,92.20
2022-10-13T05:09:44.351Z,92.95
2022-10-13T05:12:10.897Z,92.36
2022-10-13T05:14:39.348Z,92.51
2022-10-13T05:17:05.700Z,92.79
2022-10-13T05:19:32.095Z,92.48
2022-10-13T05:21:58.498Z,92.52
2022-10-13T05:24:36.282Z,92.58
2022-10-13T05:27:09.072Z,92.53
2022-10-13T05:29:36.284Z,92.95
2022-10-13T05:32:03.119Z,92.46
2022-10-13T05:34:29.549Z,92.76
2022-10-13T05:36:56.175Z,92.55
2022-10-13T05:39:22.679Z,92.49
2022-10-13T05:41:51.081Z,92.91
2022-10-13T05:44:17.654Z,92.51
2022-10-13T05:46:44.437Z,92.80
2022-10-13T05:49:25.234Z,92.62
2022-10-13T05:51:55.510Z,92.76
2022-10-13T05:54:30.227Z,92.55
2022-10-13T05:57:04.591Z,92.81
2022-10-13T05:59:37.694Z,92.48
2022-10-13T06:02:06.308Z,92.24
2022-10-13T06:04:42.881Z,92.90
2022-10-13T06:07:09.943Z,92.53
2022-10-13T06:09:38.249Z,92.82
2022-10-13T06:12:06.380Z,92.44
2022-10-13T06:14:36.089Z,92.56
2022-10-13T06:17:02.517Z,92.74
2022-10-13T06:19:31.236Z,92.65
2022-10-13T06:22:11.080Z,92.80
2022-10-13T06:24:40.539Z,92.56
2022-10-13T06:27:11.407Z,92.53
2022-10-13T06:29:37.930Z,92.43
2022-10-13T06:32:12.756Z,92.52
2022-10-13T06:34:39.207Z,92.34
2022-10-13T06:37:15.940Z,92.42
2022-10-13T06:39:42.329Z,93.08
2022-10-13T06:42:14.004Z,92.85
2022-10-13T06:44:55.886Z,92.64
2022-10-13T06:47:25.565Z,93.08
2022-10-13T06:49:51.925Z,93.03
2022-10-13T06:52:18.518Z,92.79
2022-10-13T06:54:49.073Z,92.83
2022-10-13T06:57:15.592Z,92.98
2022-10-13T06:59:44.298Z,92.68
2022-10-13T07:02:11.851Z,93.02
2022-10-13T07:04:38.208Z,92.94
2022-10-13T07:07:04.600Z,93.48
2022-10-13T07:09:31.807Z,93.44
2022-10-13T07:12:07.479Z,92.94
2022-10-13T07:14:33.951Z,93.04
2022-10-13T07:17:19.104Z,92.87
2022-10-13T07:19:48.573Z,93.02
2022-10-13T07:22:15.685Z,93.33
2022-10-13T07:24:42.581Z,93.15
2022-10-13T07:27:10.149Z,93.59
2022-10-13T07:29:36.625Z,93.26
2022-10-13T07:32:08.068Z,93.53
2022-10-13T07:34:34.579Z,93.49
2022-10-13T07:37:00.930Z,93.43
2022-10-13T07:39:27.284Z,93.66
2022-10-13T07:41:59.640Z,93.75
2022-10-13T07:44:26.398Z,94.07
2022-10-13T07:47:11.237Z,94.01
2022-10-13T07:50:02.903Z,93.87
2022-10-13T07:52:29.358Z,94.04
2022-10-13T07:55:07.208Z,93.81
2022-10-13T07:57:56.609Z,93.94
2022-10-13T08:00:22.983Z,94.00
2022-10-13T08:02:51.093Z,94.19
2022-10-13T08:05:22.661Z,94.40
2022-10-13T08:08:06.416Z,94.55
2022-10-13T08:10:32.878Z,94.55
2022-10-13T08:12:59.323Z,94.30
2022-10-13T08:15:25.804Z,94.72
2022-10-13T08:18:11.952Z,94.60
2022-10-13T08:20:43.898Z,94.88
2022-10-13T08:23:11.376Z,94.70
2022-10-13T08:25:42.276Z,94.74
2022-10-13T08:28:28.886Z,94.29
2022-10-13T08:30:59.881Z,94.95
2022-10-13T08:33:26.873Z,94.81
2022-10-13T08:35:53.919Z,94.89
2022-10-13T08:38:20.516Z,95.19
2022-10-13T08:40:49.060Z,94.87
2022-10-13T08:43:18.620Z,94.83
2022-10-13T08:45:48.360Z,94.67
2022-10-13T08:48:24.477Z,95.01
2022-10-13T08:50:54.942Z,94.76
2022-10-13T08:53:34.203Z,94.71
2022-10-13T08:56:07.628Z,95.00
2022-10-13T08:58:37.119Z,94.81
2022-10-13T09:01:09.686Z,94.63
2022-10-13T09:03:48.121Z,94.45
2022-10-13T09:06:19.284Z,94.23
2022-10-13T09:08:58.547Z,94.25
2022-10-13T09:11:49.500Z,94.21
2022-10-13T09:14:40.171Z,94.43
2022-10-13T09:17:19.745Z,94.42
2022-10-13T09:19:57.757Z,94.42
2022-10-13T09:22:31.121Z,94.54
2022-10-13T09:25:06.437Z,94.27
2022-10-13T09:27:50.370Z,94.00
2022-10-13T09:30:39.747Z,93.81
2022-10-13T09:33:09.041Z,93.60
2022-10-13T09:35:37.223Z,93.91
2022-10-13T09:38:11.685Z,93.33
2022-10-13T09:40:40.726Z,93.69
2022-10-13T09:43:34.790Z,93.48
2022-10-13T09:46:04.264Z,93.20
2022-10-13T09:49:08.399Z,93.46
2022-10-13T09:51:40.147Z,93.44
2022-10-13T09:54:50.155Z,93.57
2022-10-13T09:57:28.841Z,93.69
2022-10-13T10:00:04.456Z,93.52
2022-10-13T10:02:36.009Z,93.60
2022-10-13T10:05:11.466Z,93.41
2022-10-13T10:07:38.000Z,93.34
2022-10-13T10:10:12.436Z,93.16
2022-10-13T10:12:41.972Z,93.12
2022-10-13T10:15:26.332Z,93.42
2022-10-13T10:17:58.896Z,93.31
2022-10-13T10:20:49.281Z,92.55
2022-10-13T10:23:37.888Z,92.91
2022-10-13T10:26:13.233Z,92.87
2022-10-13T10:28:50.569Z,92.79
2022-10-13T10:31:37.194Z,92.64
2022-10-13T10:34:40.533Z,92.13
2022-10-13T10:37:15.415Z,92.36
2022-10-13T10:39:48.498Z,92.45
2022-10-13T10:42:25.488Z,91.76
2022-10-13T10:44:54.913Z,91.50
2022-10-13T10:47:27.002Z,91.60
2022-10-13T10:49:59.716Z,91.47
2022-10-13T10:52:53.736Z,91.30
2022-10-13T10:55:32.712Z,90.80
2022-10-13T10:58:04.988Z,91.08
2022-10-13T11:00:41.346Z,91.00
2022-10-13T11:03:14.116Z,90.88
2022-10-13T11:06:12.757Z,90.75
2022-10-13T11:08:42.157Z,90.82
2022-10-13T11:11:24.815Z,90.74
2022-10-13T11:13:56.218Z,90.98
2022-10-13T11:16:37.825Z,90.30
2022-10-13T11:19:25.877Z,90.42
2022-10-13T11:21:55.258Z,89.97
2022-10-13T11:24:33.839Z,89.79
2022-10-13T11:27:12.354Z,89.86
2022-10-13T11:29:46.404Z,89.96
2022-10-13T11:32:25.021Z,89.89
2022-10-13T11:34:59.151Z,90.03
2022-10-13T11:37:35.733Z,89.40
2022-10-13T11:40:08.069Z,89.64
2022-10-13T11:43:08.429Z,89.54
2022-10-13T11:45:40.965Z,89.63
2022-10-13T11:48:38.411Z,89.55
2022-10-13T11:51:16.688Z,89.20
2022-10-13T11:53:55.499Z,89.69
2022-10-13T11:56:33.416Z,89.20
2022-10-13T11:58:59.919Z,89.68
2022-10-13T12:01:26.364Z,89.44
2022-10-13T12:03:52.798Z,89.75
2022-10-13T12:06:33.032Z,89.76
2022-10-13T12:09:07.300Z,90.14
2022-10-13T12:11:37.593Z,89.70
2022-10-13T12:14:19.452Z,89.62
2022-10-13T12:19:30.564Z,90.25
2022-10-13T12:22:01.639Z,90.24
2022-10-13T12:24:30.476Z,90.26
2022-10-13T12:26:58.432Z,89.75
2022-10-13T12:29:29.500Z,90.19
2022-10-13T12:31:59.547Z,89.76
2022-10-13T12:34:36.333Z,89.92
2022-10-13T12:37:15.229Z,89.50
2022-10-13T12:39:41.764Z,89.61
2022-10-13T12:42:13.084Z,90.30
2022-10-13T12:44:40.061Z,89.92
2022-10-13T12:47:55.540Z,90.00
2022-10-13T12:50:24.943Z,90.22
2022-10-13T12:52:54.158Z,90.36
2022-10-13T12:55:22.726Z,90.24
2022-10-13T12:57:50.917Z,90.44
2022-10-13T13:00:22.306Z,90.89
2022-10-13T13:02:54.394Z,90.66
2022-10-13T13:05:33.229Z,91.09
2022-10-13T13:08:01.509Z,90.84
2022-10-13T13:10:28.577Z,90.69
2022-10-13T13:12:56.154Z,90.76
2022-10-13T13:15:25.531Z,90.90
2022-10-13T13:17:58.788Z,91.15
2022-10-13T13:20:33.786Z,91.56
2022-10-13T13:23:01.140Z,91.74
2022-10-13T13:25:27.584Z,92.17
2022-10-13T13:27:54.043Z,92.25
2022-10-13T13:30:22.499Z,92.49
2022-10-13T13:32:49.159Z,92.28
2022-10-13T13:35:15.839Z,92.31
2022-10-13T13:37:53.028Z,92.58
2022-10-13T13:40:22.176Z,93.16
2022-10-13T13:42:48.806Z,92.79
2022-10-13T13:45:17.706Z,92.44
2022-10-13T13:47:44.986Z,92.56
2022-10-13T13:50:17.112Z,92.80
2022-10-13T13:52:43.516Z,92.59
2022-10-13T13:55:09.986Z,93.12
2022-10-13T13:57:36.332Z,93.14
2022-10-13T14:00:04.840Z,93.04
2022-10-13T14:02:31.780Z,92.77
2022-10-13T14:04:58.591Z,92.99
2022-10-13T14:07:25.134Z,93.06
2022-10-13T14:09:51.578Z,92.65
2022-10-13T14:12:18.386Z,93.06
2022-10-13T14:14:45.160Z,92.86
2022-10-13T14:17:11.532Z,92.88
2022-10-13T14:19:37.901Z,92.61
2022-10-13T14:22:09.172Z,93.01
2022-10-13T14:24:35.903Z,92.64
2022-10-13T14:27:02.347Z,92.21
2022-10-13T14:29:29.608Z,92.06
2022-10-13T14:31:56.128Z,92.30
2022-10-13T14:34:22.809Z,92.47
2022-10-13T14:36:49.190Z,92.40
2022-10-13T14:39:15.793Z,92.25
2022-10-13T14:41:42.261Z,92.34
2022-10-13T14:44:11.559Z,92.32
2022-10-13T14:46:38.078Z,92.14
2022-10-13T14:49:04.509Z,92.62
2022-10-13T14:51:32.556Z,92.59
2022-10-13T14:54:01.673Z,92.52
2022-10-13T14:56:30.215Z,92.73
2022-10-13T14:58:59.119Z,92.70
2022-10-13T15:01:25.856Z,92.39
2022-10-13T15:03:52.657Z,92.46
2022-10-13T15:06:21.450Z,92.31
2022-10-13T15:08:48.481Z,92.23
2022-10-13T15:11:16.766Z,92.56
2022-10-13T15:13:43.557Z,92.54
2022-10-13T15:16:20.682Z,92.26
2022-10-13T15:18:47.534Z,92.59
2022-10-13T15:21:14.842Z,92.36
2022-10-13T15:23:42.038Z,92.50
2022-10-13T15:26:10.051Z,92.46
2022-10-13T15:28:39.702Z,92.75
2022-10-13T15:31:06.796Z,92.98
2022-10-13T15:33:34.060Z,93.36
2022-10-13T15:36:00.604Z,93.11
2022-10-13T15:38:27.638Z,92.85
2022-10-13T15:40:59.271Z,93.12
2022-10-13T15:43:25.695Z,92.69
2022-10-13T15:45:59.972Z,92.81
2022-10-13T15:48:26.744Z,92.81
2022-10-13T15:50:55.762Z,92.73
2022-10-13T15:53:22.333Z,92.66
2022-10-13T15:55:48.862Z,92.46
2022-10-13T15:58:37.355Z,92.30
2022-10-13T16:01:20.280Z,92.80
2022-10-13T16:03:46.730Z,93.05
2022-10-13T16:06:14.305Z,93.00
2022-10-13T16:08:44.213Z,92.46
2022-10-13T16:11:12.929Z,92.40
2022-10-13T16:13:39.773Z,93.02
2022-10-13T16:16:06.631Z,93.11
2022-10-13T16:18:35.604Z,93.06
2022-10-13T16:21:18.047Z,93.17
2022-10-13T16:23:46.987Z,93.48
2022-10-13T16:26:13.665Z,93.55
2022-10-13T16:28:54.798Z,93.18
2022-10-13T16:31:21.232Z,92.98
2022-10-13T16:33:48.386Z,93.18
2022-10-13T16:36:17.684Z,93.32
2022-10-13T16:38:47.957Z,93.35
2022-10-13T16:41:17.357Z,93.28
2022-10-13T16:43:44.886Z,92.88
2022-10-13T16:46:13.566Z,93.23
2022-10-13T16:48:45.600Z,93.21
2022-10-13T16:51:15.150Z,93.32
2022-10-13T16:53:42.082Z,93.11
2022-10-13T16:56:09.195Z,93.57
2022-10-13T16:58:36.073Z,93.07
2022-10-13T17:01:12.539Z,93.26
2022-10-13T17:03:40.226Z,93.57
2022-10-13T17:06:07.204Z,93.44
2022-10-13T17:08:34.009Z,93.71
2022-10-13T17:11:01.327Z,93.64
2022-10-13T17:13:27.736Z,93.51
2022-10-13T17:15:56.726Z,93.50
2022-10-13T17:18:31.582Z,93.57
2022-10-13T17:21:15.303Z,94.01
2022-10-13T17:24:02.038Z,93.64
2022-10-13T17:26:41.814Z,93.83
2022-10-13T17:29:09.343Z,94.07
2022-10-13T17:31:46.003Z,93.61
2022-10-13T17:34:12.419Z,93.84
2022-10-13T17:36:43.043Z,93.95
2022-10-13T17:39:17.862Z,93.64
2022-10-13T17:41:44.386Z,93.64
2022-10-13T17:44:13.054Z,93.49
2022-10-13T17:46:40.665Z,93.58
2022-10-13T17:49:10.454Z,93.70
2022-10-13T17:51:37.007Z,93.34
2022-10-13T17:54:03.924Z,93.45
2022-10-13T17:56:37.783Z,93.72
2022-10-13T17:59:04.400Z,93.49
2022-10-13T18:01:33.901Z,93.88
2022-10-13T18:04:11.124Z,93.66
2022-10-13T18:06:44.029Z,93.76
2022-10-13T18:09:17.086Z,93.49
2022-10-13T18:11:49.863Z,93.65
2022-10-13T18:14:18.955Z,93.90
2022-10-13T18:16:48.970Z,93.89
2022-10-13T18:19:15.628Z,93.58
2022-10-13T18:21:42.245Z,93.55
2022-10-13T18:24:09.845Z,93.82
2022-10-13T18:26:36.405Z,93.73
2022-10-13T18:29:05.814Z,93.54
2022-10-13T18:31:34.904Z,93.20
2022-10-13T18:34:04.016Z,93.53
2022-10-13T18:36:32.098Z,93.74
2022-10-13T18:39:07.432Z,93.44
2022-10-13T18:41:35.918Z,93.55
2022-10-13T18:44:05.671Z,93.76
2022-10-13T18:46:33.084Z,93.73
2022-10-13T18:48:59.596Z,93.93
2022-10-13T18:51:26.458Z,93.75
2022-10-13T18:53:52.903Z,93.53
2022-10-13T18:56:24.783Z,93.54
2022-10-13T18:58:56.971Z,93.87
2022-10-13T19:01:27.860Z,93.62
2022-10-13T19:03:54.723Z,93.53
2022-10-13T19:06:26.810Z,93.36
2022-10-13T19:09:01.109Z,93.11
2022-10-13T19:11:28.960Z,93.01
2022-10-13T19:13:55.651Z,93.31
2022-10-13T19:16:24.212Z,93.30
2022-10-13T19:18:51.462Z,93.59
2022-10-13T19:21:18.903Z,93.17
2022-10-13T19:23:45.346Z,93.02
2022-10-13T19:26:15.196Z,93.09
2022-10-13T19:28:42.851Z,92.80
2022-10-13T19:31:11.203Z,92.77
2022-10-13T19:33:44.268Z,93.01
2022-10-13T19:36:19.285Z,93.03
2022-10-13T19:38:45.648Z,93.01
2022-10-13T19:41:11.984Z,92.76
2022-10-13T19:43:38.356Z,92.63
2022-10-13T19:46:07.120Z,92.39
2022-10-13T19:48:33.929Z,92.44
2022-10-13T19:51:01.474Z,92.14
2022-10-13T19:53:28.048Z,91.82
2022-10-13T19:55:54.428Z,91.70
2022-10-13T19:58:20.862Z,91.77
2022-10-13T20:00:47.333Z,91.69
2022-10-13T20:03:14.231Z,91.79
2022-10-13T20:05:41.574Z,91.88
2022-10-13T20:08:10.220Z,91.49
2022-10-13T20:10:43.789Z,91.48
2022-10-13T20:13:10.915Z,91.62
2022-10-13T20:15:42.314Z,91.79
2022-10-13T20:18:10.112Z,91.63
2022-10-13T20:20:36.556Z,91.44
2022-10-13T20:23:03.295Z,91.43
2022-10-13T20:25:29.912Z,91.35
2022-10-13T20:27:56.452Z,91.22
2022-10-13T20:30:23.019Z,91.33
2022-10-13T20:32:49.391Z,91.26
2022-10-13T20:35:15.860Z,91.38
2022-10-13T20:37:42.188Z,91.25
2022-10-13T20:40:09.080Z,91.23
2022-10-13T20:42:35.588Z,91.15
2022-10-13T20:45:01.988Z,91.01
2022-10-13T20:47:28.357Z,91.31
2022-10-13T20:49:54.733Z,91.49
2022-10-13T20:52:21.088Z,91.05
2022-10-13T20:54:47.455Z,91.03
2022-10-13T20:57:13.886Z,91.13
2022-10-13T20:59:40.204Z,91.02
2022-10-13T21:02:06.670Z,91.69
2022-10-13T21:04:38.698Z,91.28
2022-10-13T21:07:05.246Z,91.16
2022-10-13T21:09:35.249Z,91.17
2022-10-13T21:12:01.802Z,91.32
2022-10-13T21:14:28.207Z,91.72
2022-10-13T21:17:17.417Z,92.09
2022-10-13T21:19:43.875Z,92.30
2022-10-13T21:22:10.606Z,92.86
2022-10-13T21:24:41.342Z,92.92
2022-10-13T21:27:15.835Z,93.33
2022-10-13T21:29:42.244Z,93.28
2022-10-13T21:32:09.766Z,93.28
2022-10-13T21:34:43.317Z,93.19
2022-10-13T21:37:14.144Z,93.78
2022-10-13T21:39:41.740Z,93.63
2022-10-13T21:42:08.351Z,93.57
2022-10-13T21:44:41.548Z,93.31
2022-10-13T21:47:08.045Z,93.84
2022-10-13T21:49:35.760Z,93.80
2022-10-13T21:52:02.181Z,93.48
2022-10-13T21:54:31.646Z,93.47
2022-10-13T21:56:58.235Z,93.38
2022-10-13T21:59:24.630Z,93.74
2022-10-13T22:01:51.144Z,93.54
2022-10-13T22:04:17.693Z,93.56
2022-10-13T22:06:47.167Z,93.22
2022-10-13T22:09:14.293Z,93.78
2022-10-13T22:11:42.005Z,93.48
2022-10-13T22:14:15.660Z,93.50
2022-10-13T22:16:47.263Z,93.82
2022-10-13T22:19:15.694Z,93.67
2022-10-13T22:21:48.623Z,93.83
2022-10-13T22:24:35.394Z,93.85
2022-10-13T22:27:01.807Z,93.67
2022-10-13T22:29:28.262Z,93.85
2022-10-13T22:31:56.709Z,93.66
2022-10-13T22:34:23.434Z,94.03
2022-10-13T22:36:56.065Z,94.05
2022-10-13T22:39:23.487Z,94.33
2022-10-13T22:41:50.070Z,94.16
2022-10-13T22:44:16.490Z,94.17
2022-10-13T22:46:48.095Z,94.13
2022-10-13T22:49:14.758Z,93.97
2022-10-13T22:52:09.947Z,93.92
2022-10-13T22:54:36.435Z,93.77
2022-10-13T22:57:02.869Z,94.21
2022-10-13T22:59:29.313Z,93.72
2022-10-13T23:01:55.762Z,93.69
2022-10-13T23:04:22.298Z,94.11
2022-10-13T23:06:54.775Z,94.11
2022-10-13T23:09:21.158Z,94.04
2022-10-13T23:11:59.908Z,94.05
2022-10-13T23:14:26.605Z,94.19
2022-10-13T23:16:52.989Z,94.40
2022-10-13T23:19:20.463Z,94.06
2022-10-13T23:21:46.880Z,94.01
2022-10-13T23:24:46.449Z,93.92
2022-10-13T23:27:17.166Z,93.90
2022-10-13T23:29:43.586Z,93.74
2022-10-13T23:32:39.122Z,94.07
2022-10-13T23:35:06.034Z,93.42
2022-10-13T23:37:38.514Z,93.56
2022-10-13T23:40:05.554Z,93.81
2022-10-13T23:42:32.079Z,93.63
2022-10-13T23:44:58.740Z,93.38
2022-10-13T23:47:25.155Z,93.74
2022-10-13T23:49:51.582Z,93.97
2022-10-13T23:52:21.282Z,94.17
2022-10-13T23:54:47.954Z,94.27
2022-10-13T23:57:14.391Z,94.31
2022-10-13T23:59:50.979Z,94.08
